createdAt,value
2017-10-21T00:00:15.377Z,50
2017-10-21T00:01:23.466Z,50
2017-10-21T00:02:31.559Z,50
2017-10-21T00:03:39.644Z,50
2017-10-21T00:04:47.729Z,51
2017-10-21T00:05:55.818Z,50
2017-10-21T00:07:03.903Z,50
2017-10-21T00:08:11.992Z,51
2017-10-21T00:09:20.080Z,50
2017-10-21T00:10:28.168Z,50
2017-10-21T00:11:36.269Z,50
2017-10-21T00:12:44.341Z,50
2017-10-21T00:13:52.430Z,50
2017-10-21T00:15:00.517Z,50
2017-10-21T00:16:08.607Z,51
2017-10-21T00:17:16.692Z,51
2017-10-21T00:18:24.814Z,50
2017-10-21T00:19:32.867Z,50
2017-10-21T00:20:40.960Z,51
2017-10-21T00:21:49.054Z,51
2017-10-21T00:22:57.155Z,51
2017-10-21T00:24:05.218Z,50
2017-10-21T00:25:13.306Z,50
2017-10-21T00:26:21.419Z,50
2017-10-21T00:27:29.508Z,50
2017-10-21T00:28:37.595Z,51
2017-10-21T00:29:45.682Z,51
2017-10-21T00:30:53.769Z,51
2017-10-21T00:32:01.857Z,50
2017-10-21T00:33:09.945Z,50
2017-10-21T00:34:18.036Z,50
2017-10-21T00:35:26.121Z,50
2017-10-21T00:36:34.227Z,50
2017-10-21T00:37:42.294Z,50
2017-10-21T00:38:50.390Z,50
2017-10-21T00:39:58.475Z,50
2017-10-21T00:41:06.563Z,50
2017-10-21T00:42:14.652Z,50
2017-10-21T00:43:22.737Z,50
2017-10-21T00:44:30.827Z,50
2017-10-21T00:45:38.915Z,50
2017-10-21T00:46:47.005Z,50
2017-10-21T00:47:55.090Z,50
2017-10-21T00:49:03.176Z,50
2017-10-21T00:50:11.397Z,50
2017-10-21T00:51:19.486Z,50
2017-10-21T00:52:27.574Z,50
2017-10-21T00:53:35.662Z,50
2017-10-21T00:54:43.748Z,50
2017-10-21T00:55:51.836Z,50
2017-10-21T00:56:59.924Z,50
2017-10-21T00:58:08.010Z,50
2017-10-21T00:59:16.103Z,50
2017-10-21T01:00:24.186Z,50
2017-10-21T01:01:32.274Z,50
2017-10-21T01:02:40.362Z,50
2017-10-21T01:03:48.451Z,50
2017-10-21T01:04:56.537Z,50
2017-10-21T01:06:04.625Z,50
2017-10-21T01:07:12.722Z,50
2017-10-21T01:08:20.821Z,50
2017-10-21T01:09:28.903Z,50
2017-10-21T01:10:36.992Z,50
2017-10-21T01:11:45.078Z,50
2017-10-21T01:12:53.165Z,50
2017-10-21T01:14:01.257Z,50
2017-10-21T01:15:09.340Z,50
2017-10-21T01:16:17.428Z,50
2017-10-21T01:17:25.516Z,50
2017-10-21T01:18:33.602Z,50
2017-10-21T01:19:41.692Z,50
2017-10-21T01:20:49.781Z,50
2017-10-21T01:21:57.875Z,50
2017-10-21T01:23:05.962Z,50
2017-10-21T01:24:14.051Z,50
2017-10-21T01:25:22.147Z,50
2017-10-21T01:26:30.226Z,50
2017-10-21T01:27:38.314Z,50
2017-10-21T01:28:46.402Z,50
2017-10-21T01:29:54.605Z,50
2017-10-21T01:31:02.691Z,50
2017-10-21T01:32:10.782Z,50
2017-10-21T01:33:18.870Z,50
2017-10-21T01:34:26.954Z,50
2017-10-21T01:35:35.040Z,50
2017-10-21T01:36:43.129Z,50
2017-10-21T01:37:51.216Z,50
2017-10-21T01:38:59.303Z,50
2017-10-21T01:40:07.398Z,50
2017-10-21T01:41:15.480Z,50
2017-10-21T01:42:23.568Z,50
2017-10-21T01:43:31.655Z,50
2017-10-21T01:44:39.741Z,50
2017-10-21T01:45:47.830Z,50
2017-10-21T01:46:55.917Z,50
2017-10-21T01:48:04.005Z,50
2017-10-21T01:49:12.093Z,50
2017-10-21T01:50:20.212Z,50
2017-10-21T01:51:28.270Z,50
2017-10-21T01:52:36.357Z,50
2017-10-21T01:53:44.474Z,50
2017-10-21T01:54:52.532Z,50
2017-10-21T01:56:00.619Z,50
2017-10-21T01:57:08.711Z,50
2017-10-21T01:58:16.807Z,50
2017-10-21T01:59:24.892Z,50
2017-10-21T02:00:32.979Z,50
2017-10-21T02:01:41.066Z,50
2017-10-21T02:02:49.154Z,50
2017-10-21T02:03:57.243Z,50
2017-10-21T02:05:05.412Z,50
2017-10-21T02:06:13.500Z,50
2017-10-21T02:07:21.603Z,50
2017-10-21T02:08:29.678Z,50
2017-10-21T02:09:37.761Z,50
2017-10-21T02:10:45.863Z,50
2017-10-21T02:11:53.960Z,50
2017-10-21T02:13:02.025Z,50
2017-10-21T02:14:10.115Z,50
2017-10-21T02:15:18.200Z,50
2017-10-21T02:16:26.288Z,50
2017-10-21T02:17:34.382Z,50
2017-10-21T02:18:42.463Z,50
2017-10-21T02:19:50.551Z,50
2017-10-21T02:20:58.638Z,50
2017-10-21T02:22:06.727Z,50
2017-10-21T02:23:14.813Z,50
2017-10-21T02:24:22.900Z,50
2017-10-21T02:25:30.989Z,50
2017-10-21T02:26:39.077Z,50
2017-10-21T02:27:47.162Z,50
2017-10-21T02:28:55.253Z,50
2017-10-21T02:30:03.345Z,50
2017-10-21T02:31:11.435Z,50
2017-10-21T02:32:19.515Z,50
2017-10-21T02:33:27.602Z,50
2017-10-21T02:34:35.761Z,50
2017-10-21T02:35:43.847Z,50
2017-10-21T02:36:51.934Z,50
2017-10-21T02:38:00.022Z,50
2017-10-21T02:39:08.117Z,50
2017-10-21T02:40:16.206Z,50
2017-10-21T02:41:24.315Z,50
2017-10-21T02:42:32.405Z,50
2017-10-21T02:43:40.490Z,50
2017-10-21T02:44:48.609Z,50
2017-10-21T02:45:56.699Z,50
2017-10-21T02:47:04.789Z,50
2017-10-21T02:48:12.872Z,50
2017-10-21T02:49:20.970Z,50
2017-10-21T02:50:29.046Z,50
2017-10-21T02:51:37.132Z,50
2017-10-21T02:52:45.219Z,50
2017-10-21T02:53:53.305Z,50
2017-10-21T02:55:01.851Z,50
2017-10-21T02:56:09.482Z,50
2017-10-21T02:57:17.570Z,50
2017-10-21T02:58:25.658Z,50
2017-10-21T02:59:33.745Z,50
2017-10-21T03:00:41.833Z,50
2017-10-21T03:01:49.921Z,50
2017-10-21T03:02:58.011Z,50
2017-10-21T03:04:06.094Z,50
2017-10-21T03:05:14.182Z,50
2017-10-21T03:06:22.271Z,50
2017-10-21T03:07:30.356Z,50
2017-10-21T03:08:38.466Z,50
2017-10-21T03:09:46.535Z,50
2017-10-21T03:10:54.621Z,50
2017-10-21T03:12:02.706Z,50
2017-10-21T03:13:10.802Z,50
2017-10-21T03:14:18.883Z,50
2017-10-21T03:15:26.971Z,50
2017-10-21T03:16:35.063Z,50
2017-10-21T03:17:43.159Z,50
2017-10-21T03:18:51.236Z,50
2017-10-21T03:19:59.324Z,50
2017-10-21T03:21:07.409Z,50
2017-10-21T03:22:15.505Z,50
2017-10-21T03:23:23.588Z,50
2017-10-21T03:24:31.673Z,50
2017-10-21T03:25:39.761Z,50
2017-10-21T03:26:47.875Z,50
2017-10-21T03:27:55.950Z,50
2017-10-21T03:29:04.047Z,50
2017-10-21T03:30:12.127Z,50
2017-10-21T03:31:20.222Z,50
2017-10-21T03:32:28.321Z,50
2017-10-21T03:33:36.397Z,50
2017-10-21T03:34:44.484Z,50
2017-10-21T03:35:52.572Z,50
2017-10-21T03:37:00.662Z,50
2017-10-21T03:38:08.751Z,50
2017-10-21T03:39:16.842Z,50
2017-10-21T03:40:24.925Z,50
2017-10-21T03:41:33.015Z,50
2017-10-21T03:42:41.104Z,50
2017-10-21T03:43:49.185Z,51
2017-10-21T03:44:57.275Z,51
2017-10-21T03:46:05.362Z,50
2017-10-21T03:47:13.449Z,50
2017-10-21T03:48:21.546Z,50
2017-10-21T03:49:29.635Z,50
2017-10-21T03:50:37.719Z,51
2017-10-21T03:51:45.808Z,50
2017-10-21T03:52:53.895Z,50
2017-10-21T03:54:01.983Z,51
2017-10-21T03:55:10.067Z,50
2017-10-21T03:56:18.155Z,50
2017-10-21T03:57:26.241Z,50
2017-10-21T03:58:34.336Z,50
2017-10-21T03:59:42.417Z,50
2017-10-21T04:00:50.502Z,51
2017-10-21T04:01:58.590Z,51
2017-10-21T04:03:06.843Z,51
2017-10-21T04:04:14.776Z,51
2017-10-21T04:05:22.861Z,51
2017-10-21T04:06:30.954Z,50
2017-10-21T04:07:39.044Z,50
2017-10-21T04:08:47.817Z,51
2017-10-21T04:09:55.818Z,51
2017-10-21T04:11:03.907Z,50
2017-10-21T04:12:11.993Z,51
2017-10-21T04:13:20.084Z,50
2017-10-21T04:14:28.192Z,51
2017-10-21T04:15:36.256Z,51
2017-10-21T04:16:44.343Z,50
2017-10-21T04:17:52.444Z,51
2017-10-21T04:19:00.524Z,50
2017-10-21T04:20:08.612Z,50
2017-10-21T04:21:16.699Z,50
2017-10-21T04:22:24.786Z,51
2017-10-21T04:23:32.873Z,50
2017-10-21T04:24:40.958Z,50
2017-10-21T04:25:49.045Z,51
2017-10-21T04:26:57.133Z,50
2017-10-21T04:28:05.220Z,50
2017-10-21T04:29:13.601Z,51
2017-10-21T04:30:21.395Z,51
2017-10-21T04:31:29.717Z,50
2017-10-21T04:32:37.577Z,50
2017-10-21T04:33:45.657Z,50
2017-10-21T04:34:53.795Z,50
2017-10-21T04:36:01.883Z,50
2017-10-21T04:37:09.973Z,50
2017-10-21T04:38:18.062Z,50
2017-10-21T04:39:26.145Z,51
2017-10-21T04:40:34.231Z,51
2017-10-21T04:41:42.317Z,51
2017-10-21T04:42:50.402Z,50
2017-10-21T04:43:58.933Z,51
2017-10-21T04:45:06.583Z,51
2017-10-21T04:46:14.670Z,51
2017-10-21T04:47:22.755Z,51
2017-10-21T04:48:30.853Z,51
2017-10-21T04:49:38.944Z,51
2017-10-21T04:50:47.027Z,51
2017-10-21T04:51:55.118Z,51
2017-10-21T04:53:03.200Z,51
2017-10-21T04:54:11.288Z,51
2017-10-21T04:55:19.392Z,51
2017-10-21T04:56:27.460Z,51
2017-10-21T04:57:35.560Z,51
2017-10-21T04:58:43.641Z,51
2017-10-21T04:59:51.728Z,51
2017-10-21T05:00:59.815Z,51
2017-10-21T05:02:07.902Z,51
2017-10-21T05:03:15.990Z,51
2017-10-21T05:04:24.094Z,51
2017-10-21T05:05:32.164Z,51
2017-10-21T05:06:40.250Z,51
2017-10-21T05:07:48.336Z,51
2017-10-21T05:08:56.421Z,51
2017-10-21T05:10:04.509Z,51
2017-10-21T05:11:12.596Z,51
2017-10-21T05:12:20.685Z,51
2017-10-21T05:13:28.775Z,51
2017-10-21T05:14:36.866Z,51
2017-10-21T05:15:44.950Z,51
2017-10-21T05:16:53.038Z,51
2017-10-21T05:18:01.123Z,51
2017-10-21T05:19:09.231Z,51
2017-10-21T05:20:17.300Z,51
2017-10-21T05:21:25.385Z,51
2017-10-21T05:22:33.474Z,52
2017-10-21T05:23:41.576Z,52
2017-10-21T05:24:49.644Z,51
2017-10-21T05:25:57.730Z,51
2017-10-21T05:27:05.816Z,52
2017-10-21T05:28:13.904Z,51
2017-10-21T05:29:21.995Z,51
2017-10-21T05:30:30.085Z,51
2017-10-21T05:31:38.182Z,51
2017-10-21T05:32:46.260Z,51
2017-10-21T05:33:54.344Z,51
2017-10-21T05:35:02.427Z,51
2017-10-21T05:36:10.518Z,51
2017-10-21T05:37:18.602Z,51
2017-10-21T05:38:26.691Z,51
2017-10-21T05:39:34.779Z,51
2017-10-21T05:40:42.876Z,51
2017-10-21T05:41:50.954Z,51
2017-10-21T05:42:59.039Z,51
2017-10-21T05:44:07.132Z,51
2017-10-21T05:45:15.224Z,51
2017-10-21T05:46:23.308Z,51
2017-10-21T05:47:31.409Z,51
2017-10-21T05:48:39.496Z,52
2017-10-21T05:49:47.581Z,51
2017-10-21T05:50:55.673Z,52
2017-10-21T05:52:03.769Z,51
2017-10-21T05:53:11.850Z,52
2017-10-21T05:54:19.939Z,52
2017-10-21T05:55:28.024Z,51
2017-10-21T05:56:36.110Z,52
2017-10-21T05:57:44.195Z,51
2017-10-21T05:58:52.283Z,52
2017-10-21T06:00:00.641Z,51
2017-10-21T06:01:08.463Z,51
2017-10-21T06:02:16.554Z,51
2017-10-21T06:03:24.721Z,51
2017-10-21T06:04:32.819Z,51
2017-10-21T06:05:40.902Z,51
2017-10-21T06:06:48.984Z,51
2017-10-21T06:07:57.071Z,51
2017-10-21T06:09:05.157Z,51
2017-10-21T06:10:13.244Z,51
2017-10-21T06:11:21.332Z,51
2017-10-21T06:12:29.419Z,51
2017-10-21T06:13:37.504Z,51
2017-10-21T06:14:45.606Z,51
2017-10-21T06:15:53.698Z,51
2017-10-21T06:17:01.782Z,51
2017-10-21T06:18:09.863Z,51
2017-10-21T06:19:17.950Z,51
2017-10-21T06:20:26.036Z,51
2017-10-21T06:21:34.123Z,51
2017-10-21T06:22:42.206Z,51
2017-10-21T06:23:50.293Z,51
2017-10-21T06:24:58.379Z,51
2017-10-21T06:26:06.576Z,51
2017-10-21T06:27:14.554Z,51
2017-10-21T06:28:22.641Z,52
2017-10-21T06:29:30.737Z,51
2017-10-21T06:30:38.819Z,51
2017-10-21T06:31:46.901Z,51
2017-10-21T06:32:55.152Z,51
2017-10-21T06:34:03.163Z,51
2017-10-21T06:35:11.278Z,51
2017-10-21T06:36:19.740Z,51
2017-10-21T06:37:27.435Z,51
2017-10-21T06:38:35.458Z,51
2017-10-21T06:39:43.546Z,51
2017-10-21T06:40:51.630Z,51
2017-10-21T06:41:59.719Z,51
2017-10-21T06:43:07.804Z,51
2017-10-21T06:44:15.890Z,51
2017-10-21T06:45:23.977Z,51
2017-10-21T06:46:32.068Z,51
2017-10-21T06:47:40.150Z,51
2017-10-21T06:48:48.237Z,51
2017-10-21T06:49:56.333Z,51
2017-10-21T06:51:04.418Z,51
2017-10-21T06:52:12.506Z,51
2017-10-21T06:53:20.590Z,51
2017-10-21T06:54:28.679Z,51
2017-10-21T06:55:36.762Z,51
2017-10-21T06:56:44.850Z,51
2017-10-21T06:57:52.940Z,51
2017-10-21T06:59:01.024Z,51
2017-10-21T07:00:09.110Z,51
2017-10-21T07:01:17.196Z,51
2017-10-21T07:02:25.284Z,51
2017-10-21T07:03:33.374Z,52
2017-10-21T07:04:41.466Z,52
2017-10-21T07:05:49.554Z,51
2017-10-21T07:06:57.659Z,51
2017-10-21T07:08:05.737Z,51
2017-10-21T07:09:13.817Z,51
2017-10-21T07:10:21.914Z,52
2017-10-21T07:11:29.993Z,52
2017-10-21T07:12:38.080Z,51
2017-10-21T07:13:46.836Z,52
2017-10-21T07:14:54.304Z,52
2017-10-21T07:16:02.337Z,52
2017-10-21T07:17:10.433Z,52
2017-10-21T07:18:19.430Z,52
2017-10-21T07:19:26.601Z,51
2017-10-21T07:20:34.688Z,51
2017-10-21T07:21:43.016Z,51
2017-10-21T07:22:50.860Z,51
2017-10-21T07:23:58.942Z,52
2017-10-21T07:25:07.028Z,52
2017-10-21T07:26:15.311Z,52
2017-10-21T07:27:23.432Z,51
2017-10-21T07:28:31.546Z,51
2017-10-21T07:29:39.739Z,52
2017-10-21T07:30:47.848Z,51
2017-10-21T07:31:56.268Z,52
2017-10-21T07:33:04.323Z,52
2017-10-21T07:34:11.746Z,52
2017-10-21T07:35:19.994Z,52
2017-10-21T07:36:27.997Z,52
2017-10-21T07:37:36.246Z,52
2017-10-21T07:38:44.910Z,52
2017-10-21T07:39:52.403Z,52
2017-10-21T07:41:00.387Z,52
2017-10-21T07:42:08.476Z,52
2017-10-21T07:43:16.709Z,52
2017-10-21T07:44:24.648Z,52
2017-10-21T07:45:32.734Z,52
2017-10-21T07:46:40.822Z,52
2017-10-21T07:47:48.906Z,52
2017-10-21T07:48:57.004Z,52
2017-10-21T07:50:05.088Z,53
2017-10-21T07:51:13.191Z,52
2017-10-21T07:52:22.276Z,52
2017-10-21T07:53:29.572Z,52
2017-10-21T07:54:37.448Z,52
2017-10-21T07:55:45.565Z,52
2017-10-21T07:56:53.710Z,52
2017-10-21T07:58:01.740Z,52
2017-10-21T07:59:09.860Z,52
2017-10-21T08:00:17.938Z,52
2017-10-21T08:01:26.040Z,52
2017-10-21T08:02:34.140Z,52
2017-10-21T08:03:42.240Z,52
2017-10-21T08:04:50.304Z,52
2017-10-21T08:05:58.420Z,52
2017-10-21T08:07:06.481Z,52
2017-10-21T08:08:14.536Z,52
2017-10-21T08:09:22.655Z,52
2017-10-21T08:10:30.705Z,52
2017-10-21T08:11:38.814Z,52
2017-10-21T08:12:47.023Z,52
2017-10-21T08:13:54.957Z,52
2017-10-21T08:15:03.491Z,52
2017-10-21T08:16:11.164Z,52
2017-10-21T08:17:19.245Z,52
2017-10-21T08:18:27.335Z,52
2017-10-21T08:19:35.402Z,52
2017-10-21T08:20:43.534Z,52
2017-10-21T08:21:51.597Z,52
2017-10-21T08:22:59.706Z,52
2017-10-21T08:24:07.770Z,52
2017-10-21T08:25:15.823Z,52
2017-10-21T08:26:23.999Z,52
2017-10-21T08:27:32.045Z,52
2017-10-21T08:28:40.199Z,52
2017-10-21T08:29:48.245Z,52
2017-10-21T08:30:56.305Z,52
2017-10-21T08:32:04.378Z,52
2017-10-21T08:33:12.395Z,52
2017-10-21T08:34:20.478Z,52
2017-10-21T08:35:28.573Z,52
2017-10-21T08:36:36.649Z,53
2017-10-21T08:37:44.737Z,53
2017-10-21T08:38:52.829Z,52
2017-10-21T08:40:00.910Z,53
2017-10-21T08:41:09.016Z,53
2017-10-21T08:42:17.155Z,53
2017-10-21T08:43:25.233Z,53
2017-10-21T08:44:33.345Z,53
2017-10-21T08:45:41.406Z,52
2017-10-21T08:46:49.462Z,53
2017-10-21T08:47:57.539Z,52
2017-10-21T08:49:05.700Z,52
2017-10-21T08:50:13.798Z,53
2017-10-21T08:51:21.860Z,53
2017-10-21T08:52:29.949Z,53
2017-10-21T08:53:37.986Z,53
2017-10-21T08:54:46.108Z,54
2017-10-21T08:55:54.184Z,54
2017-10-21T08:57:02.273Z,54
2017-10-21T08:58:10.303Z,54
2017-10-21T08:59:18.389Z,54
2017-10-21T09:00:26.484Z,54
2017-10-21T09:01:34.568Z,54
2017-10-21T09:02:42.651Z,55
2017-10-21T09:03:50.736Z,54
2017-10-21T09:04:58.833Z,55
2017-10-21T09:06:06.924Z,55
2017-10-21T09:07:15.004Z,54
2017-10-21T09:08:23.094Z,54
2017-10-21T09:09:31.179Z,54
2017-10-21T09:10:39.266Z,55
2017-10-21T09:11:47.368Z,55
2017-10-21T09:12:55.437Z,55
2017-10-21T09:14:03.524Z,55
2017-10-21T09:15:11.610Z,55
2017-10-21T09:16:19.698Z,55
2017-10-21T09:17:27.782Z,55
2017-10-21T09:18:35.869Z,55
2017-10-21T09:19:43.956Z,55
2017-10-21T09:20:52.044Z,55
2017-10-21T09:22:00.127Z,55
2017-10-21T09:23:08.222Z,55
2017-10-21T09:24:16.314Z,55
2017-10-21T09:25:24.392Z,55
2017-10-21T09:26:32.481Z,55
2017-10-21T09:27:40.572Z,55
2017-10-21T09:28:48.660Z,55
2017-10-21T09:29:56.746Z,55
2017-10-21T09:31:04.831Z,55
2017-10-21T09:32:12.922Z,55
2017-10-21T09:33:21.007Z,55
2017-10-21T09:34:29.088Z,55
2017-10-21T09:35:37.177Z,55
2017-10-21T09:36:45.263Z,55
2017-10-21T09:37:53.347Z,55
2017-10-21T09:39:01.434Z,55
2017-10-21T09:40:09.543Z,55
2017-10-21T09:41:17.618Z,55
2017-10-21T09:42:25.709Z,55
2017-10-21T09:43:33.795Z,55
2017-10-21T09:44:41.880Z,55
2017-10-21T09:45:49.966Z,55
2017-10-21T09:46:58.052Z,55
2017-10-21T09:48:06.140Z,55
2017-10-21T09:49:14.226Z,55
2017-10-21T09:50:22.308Z,55
2017-10-21T09:51:30.397Z,55
2017-10-21T09:52:38.487Z,55
2017-10-21T09:53:46.570Z,55
2017-10-21T09:54:54.655Z,55
2017-10-21T09:56:02.744Z,55
2017-10-21T09:57:10.830Z,55
2017-10-21T09:58:18.921Z,56
2017-10-21T09:59:27.000Z,55
2017-10-21T10:00:35.093Z,55
2017-10-21T10:01:43.210Z,55
2017-10-21T10:02:51.259Z,55
2017-10-21T10:03:59.345Z,55
2017-10-21T10:05:07.438Z,56
2017-10-21T10:06:15.524Z,55
2017-10-21T10:07:23.610Z,56
2017-10-21T10:08:31.694Z,56
2017-10-21T10:09:39.779Z,55
2017-10-21T10:10:47.864Z,55
2017-10-21T10:11:55.952Z,55
2017-10-21T10:13:04.039Z,55
2017-10-21T10:14:12.126Z,55
2017-10-21T10:15:20.218Z,55
2017-10-21T10:16:28.299Z,55
2017-10-21T10:17:36.385Z,55
2017-10-21T10:18:44.478Z,55
2017-10-21T10:19:52.656Z,55
2017-10-21T10:21:00.744Z,55
2017-10-21T10:22:08.835Z,55
2017-10-21T10:23:16.919Z,55
2017-10-21T10:24:25.059Z,55
2017-10-21T10:25:33.091Z,55
2017-10-21T10:26:41.174Z,55
2017-10-21T10:27:49.263Z,55
2017-10-21T10:28:57.351Z,55
2017-10-21T10:30:05.437Z,55
2017-10-21T10:31:13.524Z,55
2017-10-21T10:32:21.611Z,55
2017-10-21T10:33:29.720Z,55
2017-10-21T10:34:37.782Z,55
2017-10-21T10:35:45.871Z,55
2017-10-21T10:36:53.959Z,55
2017-10-21T10:38:02.042Z,55
2017-10-21T10:39:10.130Z,55
2017-10-21T10:40:18.214Z,56
2017-10-21T10:41:26.311Z,56
2017-10-21T10:42:34.388Z,55
2017-10-21T10:43:42.475Z,55
2017-10-21T10:44:50.570Z,56
2017-10-21T10:45:58.659Z,56
2017-10-21T10:47:06.753Z,56
2017-10-21T10:48:14.830Z,56
2017-10-21T10:49:22.924Z,55
2017-10-21T10:50:31.006Z,56
2017-10-21T10:51:39.093Z,55
2017-10-21T10:52:47.177Z,56
2017-10-21T10:53:55.275Z,56
2017-10-21T10:55:03.361Z,56
2017-10-21T10:56:11.453Z,56
2017-10-21T10:57:19.539Z,56
2017-10-21T10:58:27.626Z,56
2017-10-21T10:59:35.712Z,56
2017-10-21T11:00:43.798Z,56
2017-10-21T11:01:51.884Z,56
2017-10-21T11:02:59.982Z,56
2017-10-21T11:04:08.068Z,56
2017-10-21T11:05:16.154Z,56
2017-10-21T11:06:24.240Z,56
2017-10-21T11:07:32.330Z,56
2017-10-21T11:08:40.437Z,56
2017-10-21T11:09:48.501Z,56
2017-10-21T11:10:56.587Z,56
2017-10-21T11:12:04.673Z,56
2017-10-21T11:13:12.759Z,56
2017-10-21T11:14:20.847Z,56
2017-10-21T11:15:28.931Z,56
2017-10-21T11:16:37.017Z,56
2017-10-21T11:17:45.103Z,56
2017-10-21T11:18:53.190Z,56
2017-10-21T11:20:01.273Z,56
2017-10-21T11:21:09.363Z,56
2017-10-21T11:22:17.449Z,56
2017-10-21T11:23:25.538Z,56
2017-10-21T11:24:33.622Z,56
2017-10-21T11:25:41.709Z,57
2017-10-21T11:26:49.793Z,56
2017-10-21T11:27:57.891Z,56
2017-10-21T11:29:06.053Z,56
2017-10-21T11:30:14.071Z,56
2017-10-21T11:31:22.156Z,56
2017-10-21T11:32:30.240Z,56
2017-10-21T11:33:38.331Z,56
2017-10-21T11:34:46.412Z,56
2017-10-21T11:35:54.500Z,56
2017-10-21T11:37:02.589Z,56
2017-10-21T11:38:10.674Z,56
2017-10-21T11:39:18.764Z,56
2017-10-21T11:40:26.850Z,56
2017-10-21T11:41:35.051Z,56
2017-10-21T11:42:43.129Z,56
2017-10-21T11:43:51.223Z,56
2017-10-21T11:44:59.316Z,56
2017-10-21T11:46:07.395Z,56
2017-10-21T11:47:15.486Z,56
2017-10-21T11:48:23.572Z,56
2017-10-21T11:49:31.658Z,55
2017-10-21T11:50:39.743Z,56
2017-10-21T11:51:47.831Z,56
2017-10-21T11:52:55.915Z,56
2017-10-21T11:54:04.007Z,56
2017-10-21T11:55:12.088Z,56
2017-10-21T11:56:20.177Z,56
2017-10-21T11:57:28.262Z,56
2017-10-21T11:58:36.350Z,56
2017-10-21T11:59:44.436Z,55
2017-10-21T12:00:52.529Z,56
2017-10-21T12:02:00.611Z,56
2017-10-21T12:03:08.696Z,55
2017-10-21T12:04:16.781Z,56
2017-10-21T12:05:24.869Z,56
2017-10-21T12:06:32.955Z,55
2017-10-21T12:07:41.041Z,56
2017-10-21T12:08:49.129Z,56
2017-10-21T12:09:57.214Z,56
2017-10-21T12:11:05.302Z,56
2017-10-21T12:12:13.392Z,56
2017-10-21T12:13:21.473Z,56
2017-10-21T12:14:29.561Z,56
2017-10-21T12:15:37.648Z,56
2017-10-21T12:16:45.736Z,56
2017-10-21T12:17:53.820Z,56
2017-10-21T12:19:01.908Z,56
2017-10-21T12:20:09.997Z,56
2017-10-21T12:21:18.080Z,56
2017-10-21T12:22:26.166Z,56
2017-10-21T12:23:34.253Z,56
2017-10-21T12:24:42.338Z,56
2017-10-21T12:25:50.424Z,56
2017-10-21T12:26:58.515Z,56
2017-10-21T12:28:06.598Z,56
2017-10-21T12:29:14.686Z,56
2017-10-21T12:30:22.772Z,56
2017-10-21T12:31:30.856Z,56
2017-10-21T12:32:38.957Z,56
2017-10-21T12:33:47.048Z,56
2017-10-21T12:34:55.138Z,55
2017-10-21T12:36:03.219Z,56
2017-10-21T12:37:11.304Z,56
2017-10-21T12:38:19.392Z,55
2017-10-21T12:39:27.477Z,55
2017-10-21T12:40:35.565Z,55
2017-10-21T12:41:43.663Z,55
2017-10-21T12:42:51.738Z,55
2017-10-21T12:43:59.825Z,55
2017-10-21T12:45:07.911Z,55
2017-10-21T12:46:15.997Z,55
2017-10-21T12:47:24.093Z,55
2017-10-21T12:48:32.180Z,55
2017-10-21T12:49:40.268Z,55
2017-10-21T12:50:48.362Z,55
2017-10-21T12:51:56.438Z,55
2017-10-21T12:53:04.542Z,55
2017-10-21T12:54:12.612Z,55
2017-10-21T12:55:20.700Z,56
2017-10-21T12:56:28.848Z,56
2017-10-21T12:57:36.871Z,55
2017-10-21T12:58:44.961Z,56
2017-10-21T12:59:53.050Z,55
2017-10-21T13:01:01.131Z,56
2017-10-21T13:02:09.217Z,56
2017-10-21T13:03:17.312Z,55
2017-10-21T13:04:25.399Z,56
2017-10-21T13:05:33.485Z,56
2017-10-21T13:06:41.573Z,56
2017-10-21T13:07:49.665Z,56
2017-10-21T13:08:57.745Z,56
2017-10-21T13:10:05.838Z,56
2017-10-21T13:11:13.920Z,56
2017-10-21T13:12:22.005Z,56
2017-10-21T13:13:30.091Z,56
2017-10-21T13:14:38.177Z,56
2017-10-21T13:15:46.263Z,55
2017-10-21T13:16:54.349Z,55
2017-10-21T13:18:02.435Z,55
2017-10-21T13:19:10.523Z,56
2017-10-21T13:20:18.611Z,55
2017-10-21T13:21:26.697Z,55
2017-10-21T13:22:34.783Z,55
2017-10-21T13:23:42.888Z,55
2017-10-21T13:24:50.964Z,55
2017-10-21T13:25:59.048Z,55
2017-10-21T13:27:07.145Z,55
2017-10-21T13:28:15.231Z,55
2017-10-21T13:29:23.316Z,55
2017-10-21T13:30:31.405Z,55
2017-10-21T13:31:39.488Z,56
2017-10-21T13:32:47.574Z,55
2017-10-21T13:33:55.666Z,55
2017-10-21T13:35:03.749Z,55
2017-10-21T13:36:11.835Z,55
2017-10-21T13:37:19.922Z,55
2017-10-21T13:38:28.006Z,55
2017-10-21T13:39:36.093Z,55
2017-10-21T13:40:44.176Z,55
2017-10-21T13:41:52.263Z,55
2017-10-21T13:43:00.356Z,55
2017-10-21T13:44:08.439Z,55
2017-10-21T13:45:16.526Z,55
2017-10-21T13:46:24.611Z,55
2017-10-21T13:47:32.698Z,55
2017-10-21T13:48:40.828Z,55
2017-10-21T13:49:48.868Z,55
2017-10-21T13:50:56.960Z,55
2017-10-21T13:52:05.042Z,55
2017-10-21T13:53:13.126Z,55
2017-10-21T13:54:21.215Z,55
2017-10-21T13:55:29.303Z,55
2017-10-21T13:56:37.387Z,55
2017-10-21T13:57:45.474Z,55
2017-10-21T13:58:53.560Z,55
2017-10-21T14:00:01.650Z,55
2017-10-21T14:01:09.732Z,55
2017-10-21T14:02:17.818Z,55
2017-10-21T14:03:25.905Z,55
2017-10-21T14:04:33.990Z,55
2017-10-21T14:05:42.078Z,55
2017-10-21T14:06:50.163Z,55
2017-10-21T14:07:58.249Z,55
2017-10-21T14:09:06.348Z,55
2017-10-21T14:10:14.422Z,55
2017-10-21T14:11:22.526Z,55
2017-10-21T14:12:30.610Z,55
2017-10-21T14:13:38.701Z,55
2017-10-21T14:14:46.794Z,55
2017-10-21T14:15:54.881Z,55
2017-10-21T14:17:02.970Z,55
2017-10-21T14:18:11.056Z,55
2017-10-21T14:19:19.151Z,55
2017-10-21T14:20:27.250Z,55
2017-10-21T14:21:35.315Z,55
2017-10-21T14:22:43.411Z,55
2017-10-21T14:23:51.484Z,55
2017-10-21T14:24:59.572Z,55
2017-10-21T14:26:07.658Z,55
2017-10-21T14:27:15.745Z,55
2017-10-21T14:28:23.833Z,55
2017-10-21T14:29:31.921Z,55
2017-10-21T14:30:40.005Z,55
2017-10-21T14:31:48.096Z,55
2017-10-21T14:32:56.182Z,55
2017-10-21T14:34:04.270Z,55
2017-10-21T14:35:12.358Z,54
2017-10-21T14:36:20.443Z,55
2017-10-21T14:37:28.530Z,54
2017-10-21T14:38:36.616Z,55
2017-10-21T14:39:44.710Z,54
2017-10-21T14:40:52.791Z,54
2017-10-21T14:42:00.878Z,55
2017-10-21T14:43:08.962Z,55
2017-10-21T14:44:17.048Z,55
2017-10-21T14:45:25.133Z,54
2017-10-21T14:46:33.228Z,55
2017-10-21T14:47:41.308Z,55
2017-10-21T14:48:49.423Z,55
2017-10-21T14:49:57.488Z,55
2017-10-21T14:51:05.568Z,55
2017-10-21T14:52:13.676Z,54
2017-10-21T14:53:21.737Z,54
2017-10-21T14:54:29.825Z,55
2017-10-21T14:55:37.914Z,55
2017-10-21T14:56:45.998Z,55
2017-10-21T14:57:54.085Z,55
2017-10-21T14:59:02.171Z,55
2017-10-21T15:00:10.256Z,55
2017-10-21T15:01:18.344Z,55
2017-10-21T15:02:26.427Z,55
2017-10-21T15:03:34.514Z,55
2017-10-21T15:04:42.600Z,55
2017-10-21T15:05:50.687Z,55
2017-10-21T15:06:58.774Z,55
2017-10-21T15:08:06.860Z,55
2017-10-21T15:09:14.947Z,55
2017-10-21T15:10:23.034Z,55
2017-10-21T15:11:31.119Z,55
2017-10-21T15:12:39.303Z,55
2017-10-21T15:13:47.381Z,55
2017-10-21T15:14:55.469Z,55
2017-10-21T15:16:03.555Z,55
2017-10-21T15:17:11.645Z,55
2017-10-21T15:18:19.729Z,55
2017-10-21T15:19:27.826Z,55
2017-10-21T15:20:35.912Z,55
2017-10-21T15:21:43.996Z,55
2017-10-21T15:22:52.086Z,55
2017-10-21T15:24:00.172Z,55
2017-10-21T15:25:08.259Z,55
2017-10-21T15:26:16.343Z,55
2017-10-21T15:27:24.431Z,55
2017-10-21T15:28:32.517Z,55
2017-10-21T15:29:40.602Z,55
2017-10-21T15:30:48.697Z,55
2017-10-21T15:31:56.791Z,55
2017-10-21T15:33:04.866Z,55
2017-10-21T15:34:12.947Z,55
2017-10-21T15:35:21.032Z,55
2017-10-21T15:36:29.121Z,55
2017-10-21T15:37:37.213Z,55
2017-10-21T15:38:45.292Z,55
2017-10-21T15:39:53.378Z,55
2017-10-21T15:41:01.469Z,55
2017-10-21T15:42:09.555Z,55
2017-10-21T15:43:17.638Z,55
2017-10-21T15:44:25.725Z,55
2017-10-21T15:45:33.812Z,55
2017-10-21T15:46:41.897Z,55
2017-10-21T15:47:49.989Z,55
2017-10-21T15:48:58.092Z,55
2017-10-21T15:50:06.161Z,55
2017-10-21T15:51:14.245Z,55
2017-10-21T15:52:22.331Z,55
2017-10-21T15:53:30.418Z,55
2017-10-21T15:54:38.510Z,55
2017-10-21T15:55:46.589Z,55
2017-10-21T15:56:54.675Z,55
2017-10-21T15:58:02.762Z,55
2017-10-21T15:59:10.847Z,55
2017-10-21T16:00:18.934Z,55
2017-10-21T16:01:27.019Z,55
2017-10-21T16:02:35.106Z,55
2017-10-21T16:03:43.193Z,55
2017-10-21T16:04:51.278Z,55
2017-10-21T16:05:59.370Z,55
2017-10-21T16:07:07.459Z,55
2017-10-21T16:08:15.684Z,55
2017-10-21T16:09:23.769Z,55
2017-10-21T16:10:31.866Z,55